sensor_id;sensor_type;location;lat;lon;timestamp;P1;durP1;ratioP1;P2;durP2;ratioP2
69253;SDS011;56364;41.816;12.448;2022-11-25T00:00:13;8.80;;;3.92;;
69253;SDS011;56364;41.816;12.448;2022-11-25T00:02:42;13.30;;;4.10;;
69253;SDS011;56364;41.816;12.448;2022-11-25T00:05:09;9.95;;;3.80;;
69253;SDS011;56364;41.816;12.448;2022-11-25T00:07:35;12.40;;;4.00;;
69253;SDS011;56364;41.816;12.448;2022-11-25T00:10:02;8.00;;;3.80;;
69253;SDS011;56364;41.816;12.448;2022-11-25T00:12:28;12.82;;;4.00;;
69253;SDS011;56364;41.816;12.448;2022-11-25T00:17:20;12.98;;;4.10;;
69253;SDS011;56364;41.816;12.448;2022-11-25T00:22:13;9.18;;;3.53;;
69253;SDS011;56364;41.816;12.448;2022-11-25T00:24:39;9.27;;;3.22;;
69253;SDS011;56364;41.816;12.448;2022-11-25T00:27:05;11.10;;;3.88;;
69253;SDS011;56364;41.816;12.448;2022-11-25T00:31:57;8.07;;;3.25;;
69253;SDS011;56364;41.816;12.448;2022-11-25T00:34:23;9.20;;;3.70;;
69253;SDS011;56364;41.816;12.448;2022-11-25T00:39:17;14.10;;;4.20;;
69253;SDS011;56364;41.816;12.448;2022-11-25T00:41:44;10.70;;;3.80;;
69253;SDS011;56364;41.816;12.448;2022-11-25T00:44:29;8.05;;;4.10;;
69253;SDS011;56364;41.816;12.448;2022-11-25T00:47:10;9.32;;;3.88;;
69253;SDS011;56364;41.816;12.448;2022-11-25T00:49:41;13.50;;;3.88;;
69253;SDS011;56364;41.816;12.448;2022-11-25T00:52:08;7.03;;;3.30;;
69253;SDS011;56364;41.816;12.448;2022-11-25T00:54:34;7.55;;;3.60;;
69253;SDS011;56364;41.816;12.448;2022-11-25T00:57:00;8.95;;;3.65;;
69253;SDS011;56364;41.816;12.448;2022-11-25T01:01:52;11.85;;;4.30;;
69253;SDS011;56364;41.816;12.448;2022-11-25T01:04:19;11.45;;;4.05;;
69253;SDS011;56364;41.816;12.448;2022-11-25T01:06:45;11.65;;;4.35;;
69253;SDS011;56364;41.816;12.448;2022-11-25T01:09:11;9.82;;;3.70;;
69253;SDS011;56364;41.816;12.448;2022-11-25T01:11:38;9.07;;;3.58;;
69253;SDS011;56364;41.816;12.448;2022-11-25T01:14:04;11.70;;;3.60;;
69253;SDS011;56364;41.816;12.448;2022-11-25T01:16:30;9.20;;;3.45;;
69253;SDS011;56364;41.816;12.448;2022-11-25T01:18:57;9.60;;;4.38;;
69253;SDS011;56364;41.816;12.448;2022-11-25T01:21:24;9.80;;;3.72;;
69253;SDS011;56364;41.816;12.448;2022-11-25T01:23:50;8.68;;;3.45;;
69253;SDS011;56364;41.816;12.448;2022-11-25T01:26:18;9.43;;;3.65;;
69253;SDS011;56364;41.816;12.448;2022-11-25T01:28:45;8.77;;;3.45;;
69253;SDS011;56364;41.816;12.448;2022-11-25T01:31:12;10.15;;;3.83;;
69253;SDS011;56364;41.816;12.448;2022-11-25T01:33:39;11.40;;;3.33;;
69253;SDS011;56364;41.816;12.448;2022-11-25T01:36:06;7.10;;;3.33;;
69253;SDS011;56364;41.816;12.448;2022-11-25T01:38:33;7.78;;;3.33;;
69253;SDS011;56364;41.816;12.448;2022-11-25T01:41:00;11.65;;;3.33;;
69253;SDS011;56364;41.816;12.448;2022-11-25T01:43:27;9.75;;;3.28;;
69253;SDS011;56364;41.816;12.448;2022-11-25T01:48:41;8.80;;;3.53;;
69253;SDS011;56364;41.816;12.448;2022-11-25T01:51:31;14.38;;;3.78;;
69253;SDS011;56364;41.816;12.448;2022-11-25T01:54:00;8.68;;;3.45;;
69253;SDS011;56364;41.816;12.448;2022-11-25T01:56:27;10.93;;;3.97;;
69253;SDS011;56364;41.816;12.448;2022-11-25T01:58:55;8.60;;;3.40;;
69253;SDS011;56364;41.816;12.448;2022-11-25T02:01:21;9.52;;;3.55;;
69253;SDS011;56364;41.816;12.448;2022-11-25T02:03:48;11.15;;;3.88;;
69253;SDS011;56364;41.816;12.448;2022-11-25T02:06:23;12.60;;;3.33;;
69253;SDS011;56364;41.816;12.448;2022-11-25T02:08:50;8.90;;;3.10;;
69253;SDS011;56364;41.816;12.448;2022-11-25T02:11:18;8.32;;;3.38;;
69253;SDS011;56364;41.816;12.448;2022-11-25T02:13:45;7.25;;;3.38;;
69253;SDS011;56364;41.816;12.448;2022-11-25T02:16:12;8.50;;;3.03;;
69253;SDS011;56364;41.816;12.448;2022-11-25T02:18:38;6.28;;;3.00;;
69253;SDS011;56364;41.816;12.448;2022-11-25T02:21:04;6.30;;;3.08;;
69253;SDS011;56364;41.816;12.448;2022-11-25T02:26:09;12.82;;;3.67;;
69253;SDS011;56364;41.816;12.448;2022-11-25T02:31:01;9.02;;;3.15;;
69253;SDS011;56364;41.816;12.448;2022-11-25T02:33:27;7.60;;;3.15;;
69253;SDS011;56364;41.816;12.448;2022-11-25T02:38:21;9.00;;;3.13;;
69253;SDS011;56364;41.816;12.448;2022-11-25T02:40:49;6.68;;;3.13;;
69253;SDS011;56364;41.816;12.448;2022-11-25T02:43:17;10.00;;;3.80;;
69253;SDS011;56364;41.816;12.448;2022-11-25T02:45:46;9.50;;;3.30;;
69253;SDS011;56364;41.816;12.448;2022-11-25T02:48:13;7.03;;;3.17;;
69253;SDS011;56364;41.816;12.448;2022-11-25T02:50:39;7.55;;;3.15;;
69253;SDS011;56364;41.816;12.448;2022-11-25T02:53:06;7.32;;;3.53;;
69253;SDS011;56364;41.816;12.448;2022-11-25T02:55:32;6.35;;;3.35;;
69253;SDS011;56364;41.816;12.448;2022-11-25T02:57:58;6.40;;;3.33;;
69253;SDS011;56364;41.816;12.448;2022-11-25T03:00:24;8.70;;;3.38;;
69253;SDS011;56364;41.816;12.448;2022-11-25T03:02:53;9.25;;;3.10;;
69253;SDS011;56364;41.816;12.448;2022-11-25T03:05:20;5.70;;;2.70;;
69253;SDS011;56364;41.816;12.448;2022-11-25T03:07:46;7.72;;;3.05;;
69253;SDS011;56364;41.816;12.448;2022-11-25T03:10:12;10.10;;;3.40;;
69253;SDS011;56364;41.816;12.448;2022-11-25T03:15:04;6.03;;;2.70;;
69253;SDS011;56364;41.816;12.448;2022-11-25T03:17:30;6.25;;;2.65;;
69253;SDS011;56364;41.816;12.448;2022-11-25T03:19:56;6.90;;;2.88;;
69253;SDS011;56364;41.816;12.448;2022-11-25T03:22:23;5.68;;;2.90;;
69253;SDS011;56364;41.816;12.448;2022-11-25T03:24:49;6.75;;;3.35;;
69253;SDS011;56364;41.816;12.448;2022-11-25T03:29:41;6.68;;;2.97;;
69253;SDS011;56364;41.816;12.448;2022-11-25T03:32:07;7.95;;;3.28;;
69253;SDS011;56364;41.816;12.448;2022-11-25T03:34:33;6.53;;;2.97;;
69253;SDS011;56364;41.816;12.448;2022-11-25T03:39:25;7.63;;;2.80;;
69253;SDS011;56364;41.816;12.448;2022-11-25T03:44:17;8.23;;;3.00;;
69253;SDS011;56364;41.816;12.448;2022-11-25T03:46:43;6.93;;;3.20;;
69253;SDS011;56364;41.816;12.448;2022-11-25T03:49:09;11.18;;;3.33;;
69253;SDS011;56364;41.816;12.448;2022-11-25T03:51:35;6.70;;;2.97;;
69253;SDS011;56364;41.816;12.448;2022-11-25T03:54:01;7.38;;;3.25;;
69253;SDS011;56364;41.816;12.448;2022-11-25T03:56:27;7.50;;;3.22;;
69253;SDS011;56364;41.816;12.448;2022-11-25T03:58:53;7.55;;;2.92;;
69253;SDS011;56364;41.816;12.448;2022-11-25T04:01:19;5.85;;;2.88;;
69253;SDS011;56364;41.816;12.448;2022-11-25T04:03:45;7.13;;;2.83;;
69253;SDS011;56364;41.816;12.448;2022-11-25T04:06:11;10.45;;;3.00;;
69253;SDS011;56364;41.816;12.448;2022-11-25T04:11:03;7.50;;;2.83;;
69253;SDS011;56364;41.816;12.448;2022-11-25T04:15:55;8.30;;;2.78;;
69253;SDS011;56364;41.816;12.448;2022-11-25T04:18:21;5.95;;;2.78;;
69253;SDS011;56364;41.816;12.448;2022-11-25T04:23:13;7.30;;;2.95;;
69253;SDS011;56364;41.816;12.448;2022-11-25T04:28:05;7.18;;;3.17;;
69253;SDS011;56364;41.816;12.448;2022-11-25T04:32:57;5.00;;;2.58;;
69253;SDS011;56364;41.816;12.448;2022-11-25T04:37:49;4.35;;;2.42;;
69253;SDS011;56364;41.816;12.448;2022-11-25T04:42:41;7.45;;;2.35;;
69253;SDS011;56364;41.816;12.448;2022-11-25T04:47:33;4.97;;;2.83;;
69253;SDS011;56364;41.816;12.448;2022-11-25T04:49:59;8.70;;;2.78;;
69253;SDS011;56364;41.816;12.448;2022-11-25T04:52:25;6.07;;;2.90;;
69253;SDS011;56364;41.816;12.448;2022-11-25T04:54:51;8.27;;;2.85;;
69253;SDS011;56364;41.816;12.448;2022-11-25T04:57:18;4.80;;;2.47;;
69253;SDS011;56364;41.816;12.448;2022-11-25T04:59:44;7.18;;;3.17;;
69253;SDS011;56364;41.816;12.448;2022-11-25T05:02:23;8.48;;;2.78;;
69253;SDS011;56364;41.816;12.448;2022-11-25T05:04:51;6.80;;;2.50;;
69253;SDS011;56364;41.816;12.448;2022-11-25T05:07:17;8.23;;;2.58;;
69253;SDS011;56364;41.816;12.448;2022-11-25T05:09:44;5.93;;;2.80;;
69253;SDS011;56364;41.816;12.448;2022-11-25T05:12:11;5.00;;;2.30;;
69253;SDS011;56364;41.816;12.448;2022-11-25T05:14:37;5.35;;;2.58;;
69253;SDS011;56364;41.816;12.448;2022-11-25T05:17:04;4.75;;;2.60;;
69253;SDS011;56364;41.816;12.448;2022-11-25T05:19:31;5.13;;;2.78;;
69253;SDS011;56364;41.816;12.448;2022-11-25T05:21:57;5.68;;;2.70;;
69253;SDS011;56364;41.816;12.448;2022-11-25T05:24:24;5.38;;;2.72;;
69253;SDS011;56364;41.816;12.448;2022-11-25T05:26:50;5.72;;;2.50;;
69253;SDS011;56364;41.816;12.448;2022-11-25T05:29:16;4.68;;;2.17;;
69253;SDS011;56364;41.816;12.448;2022-11-25T05:31:42;5.85;;;2.65;;
69253;SDS011;56364;41.816;12.448;2022-11-25T05:36:34;5.03;;;2.22;;
69253;SDS011;56364;41.816;12.448;2022-11-25T05:39:01;7.18;;;2.50;;
69253;SDS011;56364;41.816;12.448;2022-11-25T05:41:27;3.88;;;2.20;;
69253;SDS011;56364;41.816;12.448;2022-11-25T05:46:19;4.75;;;2.60;;
69253;SDS011;56364;41.816;12.448;2022-11-25T05:51:11;3.83;;;2.13;;
69253;SDS011;56364;41.816;12.448;2022-11-25T05:56:04;6.32;;;2.38;;
69253;SDS011;56364;41.816;12.448;2022-11-25T05:58:31;5.25;;;2.42;;
69253;SDS011;56364;41.816;12.448;2022-11-25T06:00:57;5.90;;;2.10;;
69253;SDS011;56364;41.816;12.448;2022-11-25T06:03:24;5.68;;;2.72;;
69253;SDS011;56364;41.816;12.448;2022-11-25T06:05:50;5.93;;;2.63;;
69253;SDS011;56364;41.816;12.448;2022-11-25T06:08:17;5.95;;;2.50;;
69253;SDS011;56364;41.816;12.448;2022-11-25T06:10:43;4.28;;;2.38;;
69253;SDS011;56364;41.816;12.448;2022-11-25T06:15:39;3.97;;;2.30;;
69253;SDS011;56364;41.816;12.448;2022-11-25T06:18:05;3.63;;;1.95;;
69253;SDS011;56364;41.816;12.448;2022-11-25T06:22:57;5.50;;;2.28;;
69253;SDS011;56364;41.816;12.448;2022-11-25T06:27:49;6.63;;;2.50;;
69253;SDS011;56364;41.816;12.448;2022-11-25T06:32:41;4.50;;;2.13;;
69253;SDS011;56364;41.816;12.448;2022-11-25T06:35:07;4.72;;;2.35;;
69253;SDS011;56364;41.816;12.448;2022-11-25T06:37:34;6.65;;;2.40;;
69253;SDS011;56364;41.816;12.448;2022-11-25T06:40:00;5.18;;;2.60;;
69253;SDS011;56364;41.816;12.448;2022-11-25T06:44:52;7.10;;;2.90;;
69253;SDS011;56364;41.816;12.448;2022-11-25T06:49:44;6.88;;;2.85;;
69253;SDS011;56364;41.816;12.448;2022-11-25T06:54:36;5.07;;;2.47;;
69253;SDS011;56364;41.816;12.448;2022-11-25T06:57:08;4.18;;;2.00;;
69253;SDS011;56364;41.816;12.448;2022-11-25T06:59:35;5.43;;;2.33;;
69253;SDS011;56364;41.816;12.448;2022-11-25T07:02:01;6.07;;;2.30;;
69253;SDS011;56364;41.816;12.448;2022-11-25T07:04:28;4.68;;;1.90;;
69253;SDS011;56364;41.816;12.448;2022-11-25T07:06:54;4.20;;;2.22;;
69253;SDS011;56364;41.816;12.448;2022-11-25T07:09:20;5.43;;;2.25;;
69253;SDS011;56364;41.816;12.448;2022-11-25T07:11:46;7.53;;;2.03;;
69253;SDS011;56364;41.816;12.448;2022-11-25T07:14:13;5.22;;;2.17;;
69253;SDS011;56364;41.816;12.448;2022-11-25T07:16:40;4.80;;;1.95;;
69253;SDS011;56364;41.816;12.448;2022-11-25T07:19:06;5.28;;;2.33;;
69253;SDS011;56364;41.816;12.448;2022-11-25T07:21:33;6.88;;;2.00;;
69253;SDS011;56364;41.816;12.448;2022-11-25T07:24:01;4.50;;;1.80;;
69253;SDS011;56364;41.816;12.448;2022-11-25T07:26:28;4.93;;;2.28;;
69253;SDS011;56364;41.816;12.448;2022-11-25T07:28:56;8.55;;;2.30;;
69253;SDS011;56364;41.816;12.448;2022-11-25T07:31:24;6.57;;;2.38;;
69253;SDS011;56364;41.816;12.448;2022-11-25T07:33:51;4.03;;;2.00;;
69253;SDS011;56364;41.816;12.448;2022-11-25T07:36:17;5.97;;;2.10;;
69253;SDS011;56364;41.816;12.448;2022-11-25T07:41:13;5.40;;;2.10;;
69253;SDS011;56364;41.816;12.448;2022-11-25T07:43:39;4.07;;;2.00;;
69253;SDS011;56364;41.816;12.448;2022-11-25T07:46:24;5.72;;;1.73;;
69253;SDS011;56364;41.816;12.448;2022-11-25T07:48:51;4.95;;;1.98;;
69253;SDS011;56364;41.816;12.448;2022-11-25T07:56:09;3.25;;;1.77;;
69253;SDS011;56364;41.816;12.448;2022-11-25T07:58:35;4.43;;;2.20;;
69253;SDS011;56364;41.816;12.448;2022-11-25T08:01:02;4.82;;;2.10;;
69253;SDS011;56364;41.816;12.448;2022-11-25T08:03:28;6.05;;;1.95;;
69253;SDS011;56364;41.816;12.448;2022-11-25T08:05:58;7.88;;;2.08;;
69253;SDS011;56364;41.816;12.448;2022-11-25T08:08:25;3.22;;;1.70;;
69253;SDS011;56364;41.816;12.448;2022-11-25T08:13:17;5.35;;;1.90;;
69253;SDS011;56364;41.816;12.448;2022-11-25T08:18:08;3.80;;;1.85;;
69253;SDS011;56364;41.816;12.448;2022-11-25T08:23:00;2.90;;;1.48;;
69253;SDS011;56364;41.816;12.448;2022-11-25T08:27:54;4.25;;;2.00;;
69253;SDS011;56364;41.816;12.448;2022-11-25T08:30:20;5.05;;;2.22;;
69253;SDS011;56364;41.816;12.448;2022-11-25T08:32:48;5.80;;;1.83;;
69253;SDS011;56364;41.816;12.448;2022-11-25T08:37:40;3.85;;;1.85;;
69253;SDS011;56364;41.816;12.448;2022-11-25T08:40:06;6.20;;;1.88;;
69253;SDS011;56364;41.816;12.448;2022-11-25T08:42:33;3.88;;;1.95;;
69253;SDS011;56364;41.816;12.448;2022-11-25T08:44:59;4.18;;;1.90;;
69253;SDS011;56364;41.816;12.448;2022-11-25T08:47:25;7.45;;;2.38;;
69253;SDS011;56364;41.816;12.448;2022-11-25T08:52:17;5.35;;;1.90;;
69253;SDS011;56364;41.816;12.448;2022-11-25T08:54:43;4.75;;;1.67;;
69253;SDS011;56364;41.816;12.448;2022-11-25T08:59:35;5.38;;;1.70;;
69253;SDS011;56364;41.816;12.448;2022-11-25T09:02:03;2.67;;;1.65;;
69253;SDS011;56364;41.816;12.448;2022-11-25T09:04:29;4.95;;;1.70;;
69253;SDS011;56364;41.816;12.448;2022-11-25T09:06:55;4.97;;;2.15;;
69253;SDS011;56364;41.816;12.448;2022-11-25T09:09:21;4.97;;;1.77;;
69253;SDS011;56364;41.816;12.448;2022-11-25T09:11:47;5.78;;;1.70;;
69253;SDS011;56364;41.816;12.448;2022-11-25T09:16:39;3.42;;;1.80;;
69253;SDS011;56364;41.816;12.448;2022-11-25T09:21:31;7.13;;;2.13;;
69253;SDS011;56364;41.816;12.448;2022-11-25T09:26:24;4.47;;;1.70;;
69253;SDS011;56364;41.816;12.448;2022-11-25T09:28:51;5.85;;;2.03;;
69253;SDS011;56364;41.816;12.448;2022-11-25T09:31:17;3.08;;;1.73;;
69253;SDS011;56364;41.816;12.448;2022-11-25T09:33:44;4.45;;;1.80;;
69253;SDS011;56364;41.816;12.448;2022-11-25T09:36:10;5.07;;;2.20;;
69253;SDS011;56364;41.816;12.448;2022-11-25T09:38:37;3.20;;;2.00;;
69253;SDS011;56364;41.816;12.448;2022-11-25T09:41:07;3.80;;;1.65;;
69253;SDS011;56364;41.816;12.448;2022-11-25T09:43:53;4.38;;;2.08;;
69253;SDS011;56364;41.816;12.448;2022-11-25T09:54:20;4.18;;;1.92;;
69253;SDS011;56364;41.816;12.448;2022-11-25T09:56:48;3.45;;;1.70;;
69253;SDS011;56364;41.816;12.448;2022-11-25T09:59:17;4.53;;;1.80;;
69253;SDS011;56364;41.816;12.448;2022-11-25T10:01:54;4.70;;;1.73;;
69253;SDS011;56364;41.816;12.448;2022-11-25T10:04:24;4.43;;;1.90;;
69253;SDS011;56364;41.816;12.448;2022-11-25T10:06:55;7.47;;;1.88;;
69253;SDS011;56364;41.816;12.448;2022-11-25T10:09:26;3.85;;;1.90;;
69253;SDS011;56364;41.816;12.448;2022-11-25T10:11:54;3.80;;;1.83;;
69253;SDS011;56364;41.816;12.448;2022-11-25T10:22:24;4.70;;;1.88;;
69253;SDS011;56364;41.816;12.448;2022-11-25T10:24:52;5.82;;;1.80;;
69253;SDS011;56364;41.816;12.448;2022-11-25T10:30:12;3.63;;;1.60;;
69253;SDS011;56364;41.816;12.448;2022-11-25T10:32:40;3.47;;;1.63;;
69253;SDS011;56364;41.816;12.448;2022-11-25T10:35:51;5.72;;;1.85;;
69253;SDS011;56364;41.816;12.448;2022-11-25T10:37:58;5.43;;;1.60;;
69253;SDS011;56364;41.816;12.448;2022-11-25T10:40:25;3.95;;;2.05;;
69253;SDS011;56364;41.816;12.448;2022-11-25T10:45:17;4.18;;;1.80;;
69253;SDS011;56364;41.816;12.448;2022-11-25T10:50:32;5.65;;;1.73;;
69253;SDS011;56364;41.816;12.448;2022-11-25T10:55:34;6.85;;;2.00;;
69253;SDS011;56364;41.816;12.448;2022-11-25T10:58:18;5.20;;;1.77;;
69253;SDS011;56364;41.816;12.448;2022-11-25T11:05:46;7.35;;;2.13;;
69253;SDS011;56364;41.816;12.448;2022-11-25T11:08:15;4.20;;;1.85;;
69253;SDS011;56364;41.816;12.448;2022-11-25T11:10:42;6.90;;;2.13;;
69253;SDS011;56364;41.816;12.448;2022-11-25T11:13:24;5.80;;;1.63;;
69253;SDS011;56364;41.816;12.448;2022-11-25T11:15:51;3.67;;;1.65;;
69253;SDS011;56364;41.816;12.448;2022-11-25T11:20:47;8.15;;;2.33;;
69253;SDS011;56364;41.816;12.448;2022-11-25T11:23:13;4.00;;;1.52;;
69253;SDS011;56364;41.816;12.448;2022-11-25T11:25:50;5.18;;;1.73;;
69253;SDS011;56364;41.816;12.448;2022-11-25T11:33:29;3.97;;;1.90;;
69253;SDS011;56364;41.816;12.448;2022-11-25T11:36:09;2.97;;;1.55;;
69253;SDS011;56364;41.816;12.448;2022-11-25T11:38:46;6.15;;;1.85;;
69253;SDS011;56364;41.816;12.448;2022-11-25T11:41:17;7.78;;;2.33;;
69253;SDS011;56364;41.816;12.448;2022-11-25T11:46:30;2.95;;;1.65;;
69253;SDS011;56364;41.816;12.448;2022-11-25T11:49:02;4.00;;;1.63;;
69253;SDS011;56364;41.816;12.448;2022-11-25T11:56:41;5.13;;;1.52;;
69253;SDS011;56364;41.816;12.448;2022-11-25T12:04:23;6.10;;;1.50;;
69253;SDS011;56364;41.816;12.448;2022-11-25T12:09:34;5.25;;;1.95;;
69253;SDS011;56364;41.816;12.448;2022-11-25T12:12:03;5.22;;;1.98;;
69253;SDS011;56364;41.816;12.448;2022-11-25T12:14:47;3.42;;;1.67;;
69253;SDS011;56364;41.816;12.448;2022-11-25T12:25:03;4.10;;;1.52;;
69253;SDS011;56364;41.816;12.448;2022-11-25T12:40:41;10.43;;;2.28;;
69253;SDS011;56364;41.816;12.448;2022-11-25T12:43:16;4.15;;;1.80;;
69253;SDS011;56364;41.816;12.448;2022-11-25T12:45:46;12.55;;;1.92;;
69253;SDS011;56364;41.816;12.448;2022-11-25T12:48:14;5.30;;;1.98;;
69253;SDS011;56364;41.816;12.448;2022-11-25T12:55:35;10.88;;;2.60;;
69253;SDS011;56364;41.816;12.448;2022-11-25T13:10:33;7.25;;;2.45;;
69253;SDS011;56364;41.816;12.448;2022-11-25T13:13:06;9.98;;;3.17;;
69253;SDS011;56364;41.816;12.448;2022-11-25T13:15:44;8.70;;;2.65;;
69253;SDS011;56364;41.816;12.448;2022-11-25T13:18:18;4.95;;;2.45;;
69253;SDS011;56364;41.816;12.448;2022-11-25T13:21:27;12.52;;;2.63;;
69253;SDS011;56364;41.816;12.448;2022-11-25T13:23:40;9.45;;;2.33;;
69253;SDS011;56364;41.816;12.448;2022-11-25T13:28:53;6.20;;;2.33;;
69253;SDS011;56364;41.816;12.448;2022-11-25T13:31:20;11.15;;;2.20;;
69253;SDS011;56364;41.816;12.448;2022-11-25T13:36:17;5.90;;;1.80;;
69253;SDS011;56364;41.816;12.448;2022-11-25T13:44:03;8.20;;;2.00;;
69253;SDS011;56364;41.816;12.448;2022-11-25T13:46:33;7.47;;;1.85;;
69253;SDS011;56364;41.816;12.448;2022-11-25T13:49:01;4.50;;;1.67;;
69253;SDS011;56364;41.816;12.448;2022-11-25T13:51:28;6.57;;;1.90;;
69253;SDS011;56364;41.816;12.448;2022-11-25T13:53:58;9.45;;;2.03;;
69253;SDS011;56364;41.816;12.448;2022-11-25T14:01:39;9.90;;;2.15;;
69253;SDS011;56364;41.816;12.448;2022-11-25T14:04:06;4.60;;;1.70;;
69253;SDS011;56364;41.816;12.448;2022-11-25T14:11:45;5.90;;;2.13;;
69253;SDS011;56364;41.816;12.448;2022-11-25T14:26:34;5.15;;;1.58;;
69253;SDS011;56364;41.816;12.448;2022-11-25T14:31:40;4.93;;;2.05;;
69253;SDS011;56364;41.816;12.448;2022-11-25T14:34:41;2.20;;;1.40;;
69253;SDS011;56364;41.816;12.448;2022-11-25T14:37:05;4.05;;;1.52;;
69253;SDS011;56364;41.816;12.448;2022-11-25T14:39:35;6.47;;;2.33;;
69253;SDS011;56364;41.816;12.448;2022-11-25T14:42:14;5.07;;;1.77;;
69253;SDS011;56364;41.816;12.448;2022-11-25T14:44:48;3.80;;;1.83;;
69253;SDS011;56364;41.816;12.448;2022-11-25T14:47:15;5.78;;;1.65;;
69253;SDS011;56364;41.816;12.448;2022-11-25T14:49:46;2.78;;;1.40;;
69253;SDS011;56364;41.816;12.448;2022-11-25T14:52:17;4.40;;;1.60;;
69253;SDS011;56364;41.816;12.448;2022-11-25T14:54:43;3.30;;;1.55;;
69253;SDS011;56364;41.816;12.448;2022-11-25T14:57:09;5.47;;;1.40;;
69253;SDS011;56364;41.816;12.448;2022-11-25T14:59:36;3.60;;;1.52;;
69253;SDS011;56364;41.816;12.448;2022-11-25T15:02:02;6.30;;;1.67;;
69253;SDS011;56364;41.816;12.448;2022-11-25T15:06:55;4.07;;;1.50;;
69253;SDS011;56364;41.816;12.448;2022-11-25T15:11:58;2.95;;;1.75;;
69253;SDS011;56364;41.816;12.448;2022-11-25T15:14:27;3.10;;;1.70;;
69253;SDS011;56364;41.816;12.448;2022-11-25T15:16:53;3.00;;;1.60;;
69253;SDS011;56364;41.816;12.448;2022-11-25T15:19:21;3.83;;;1.60;;
69253;SDS011;56364;41.816;12.448;2022-11-25T15:21:57;7.82;;;1.70;;
69253;SDS011;56364;41.816;12.448;2022-11-25T15:24:31;4.10;;;1.70;;
69253;SDS011;56364;41.816;12.448;2022-11-25T15:27:14;2.08;;;1.73;;
69253;SDS011;56364;41.816;12.448;2022-11-25T15:29:41;3.42;;;1.27;;
69253;SDS011;56364;41.816;12.448;2022-11-25T15:32:18;5.88;;;1.70;;
69253;SDS011;56364;41.816;12.448;2022-11-25T15:34:45;3.85;;;1.73;;
69253;SDS011;56364;41.816;12.448;2022-11-25T15:37:12;4.30;;;1.80;;
69253;SDS011;56364;41.816;12.448;2022-11-25T15:39:39;3.53;;;1.65;;
69253;SDS011;56364;41.816;12.448;2022-11-25T15:44:37;4.95;;;1.95;;
69253;SDS011;56364;41.816;12.448;2022-11-25T15:49:40;3.55;;;1.45;;
69253;SDS011;56364;41.816;12.448;2022-11-25T15:54:40;3.60;;;1.50;;
69253;SDS011;56364;41.816;12.448;2022-11-25T15:57:15;4.90;;;1.77;;
69253;SDS011;56364;41.816;12.448;2022-11-25T16:16:17;5.20;;;1.83;;
69253;SDS011;56364;41.816;12.448;2022-11-25T16:18:28;3.30;;;1.60;;
69253;SDS011;56364;41.816;12.448;2022-11-25T16:20:55;4.50;;;1.80;;
69253;SDS011;56364;41.816;12.448;2022-11-25T16:23:22;6.38;;;1.70;;
69253;SDS011;56364;41.816;12.448;2022-11-25T16:25:49;4.68;;;1.63;;
69253;SDS011;56364;41.816;12.448;2022-11-25T16:28:22;6.60;;;1.83;;
69253;SDS011;56364;41.816;12.448;2022-11-25T16:30:49;7.07;;;1.77;;
69253;SDS011;56364;41.816;12.448;2022-11-25T16:33:15;7.70;;;1.60;;
69253;SDS011;56364;41.816;12.448;2022-11-25T16:35:41;5.18;;;1.80;;
69253;SDS011;56364;41.816;12.448;2022-11-25T16:38:10;16.60;;;2.10;;
69253;SDS011;56364;41.816;12.448;2022-11-25T16:40:37;5.13;;;2.17;;
69253;SDS011;56364;41.816;12.448;2022-11-25T16:43:18;6.63;;;2.28;;
69253;SDS011;56364;41.816;12.448;2022-11-25T16:45:47;8.40;;;2.38;;
69253;SDS011;56364;41.816;12.448;2022-11-25T16:48:17;8.63;;;2.35;;
69253;SDS011;56364;41.816;12.448;2022-11-25T16:50:44;7.45;;;2.08;;
69253;SDS011;56364;41.816;12.448;2022-11-25T16:53:10;4.97;;;2.10;;
69253;SDS011;56364;41.816;12.448;2022-11-25T16:55:37;5.75;;;2.15;;
69253;SDS011;56364;41.816;12.448;2022-11-25T16:58:05;5.18;;;1.85;;
69253;SDS011;56364;41.816;12.448;2022-11-25T17:00:32;5.38;;;2.20;;
69253;SDS011;56364;41.816;12.448;2022-11-25T17:05:24;8.23;;;1.90;;
69253;SDS011;56364;41.816;12.448;2022-11-25T17:07:50;11.98;;;2.25;;
69253;SDS011;56364;41.816;12.448;2022-11-25T17:12:43;5.72;;;2.10;;
69253;SDS011;56364;41.816;12.448;2022-11-25T17:15:20;4.68;;;1.90;;
69253;SDS011;56364;41.816;12.448;2022-11-25T17:17:46;7.75;;;2.03;;
69253;SDS011;56364;41.816;12.448;2022-11-25T17:20:14;7.38;;;2.10;;
69253;SDS011;56364;41.816;12.448;2022-11-25T17:22:40;7.60;;;2.10;;
69253;SDS011;56364;41.816;12.448;2022-11-25T17:25:06;10.13;;;2.35;;
69253;SDS011;56364;41.816;12.448;2022-11-25T17:27:32;5.95;;;1.75;;
69253;SDS011;56364;41.816;12.448;2022-11-25T17:29:59;4.15;;;1.98;;
69253;SDS011;56364;41.816;12.448;2022-11-25T17:32:28;8.55;;;2.03;;
69253;SDS011;56364;41.816;12.448;2022-11-25T17:37:23;4.05;;;2.15;;
69253;SDS011;56364;41.816;12.448;2022-11-25T17:39:52;9.55;;;2.10;;
69253;SDS011;56364;41.816;12.448;2022-11-25T17:42:21;7.10;;;1.70;;
69253;SDS011;56364;41.816;12.448;2022-11-25T17:44:48;5.88;;;1.70;;
69253;SDS011;56364;41.816;12.448;2022-11-25T17:49:40;4.80;;;1.90;;
69253;SDS011;56364;41.816;12.448;2022-11-25T17:52:06;4.85;;;1.92;;
69253;SDS011;56364;41.816;12.448;2022-11-25T17:54:32;7.70;;;2.35;;
69253;SDS011;56364;41.816;12.448;2022-11-25T17:56:59;4.85;;;1.95;;
69253;SDS011;56364;41.816;12.448;2022-11-25T17:59:25;5.55;;;2.05;;
69253;SDS011;56364;41.816;12.448;2022-11-25T18:01:53;13.38;;;2.70;;
69253;SDS011;56364;41.816;12.448;2022-11-25T18:04:26;10.27;;;2.95;;
69253;SDS011;56364;41.816;12.448;2022-11-25T18:06:52;12.35;;;2.63;;
69253;SDS011;56364;41.816;12.448;2022-11-25T18:11:45;8.80;;;2.63;;
69253;SDS011;56364;41.816;12.448;2022-11-25T18:14:13;9.57;;;2.53;;
69253;SDS011;56364;41.816;12.448;2022-11-25T18:16:40;5.38;;;2.25;;
69253;SDS011;56364;41.816;12.448;2022-11-25T18:19:09;9.55;;;2.92;;
69253;SDS011;56364;41.816;12.448;2022-11-25T18:21:36;4.90;;;2.30;;
69253;SDS011;56364;41.816;12.448;2022-11-25T18:26:28;7.68;;;2.40;;
69253;SDS011;56364;41.816;12.448;2022-11-25T18:28:54;5.70;;;1.85;;
69253;SDS011;56364;41.816;12.448;2022-11-25T18:31:20;6.93;;;2.40;;
69253;SDS011;56364;41.816;12.448;2022-11-25T18:33:47;4.63;;;1.83;;
69253;SDS011;56364;41.816;12.448;2022-11-25T18:38:39;6.32;;;2.30;;
69253;SDS011;56364;41.816;12.448;2022-11-25T18:43:31;7.38;;;2.00;;
69253;SDS011;56364;41.816;12.448;2022-11-25T18:45:58;7.28;;;2.17;;
69253;SDS011;56364;41.816;12.448;2022-11-25T18:48:25;4.75;;;2.10;;
69253;SDS011;56364;41.816;12.448;2022-11-25T18:50:52;6.80;;;2.05;;
69253;SDS011;56364;41.816;12.448;2022-11-25T18:53:19;6.78;;;2.33;;
69253;SDS011;56364;41.816;12.448;2022-11-25T18:55:46;3.22;;;1.88;;
69253;SDS011;56364;41.816;12.448;2022-11-25T18:58:16;3.47;;;1.88;;
69253;SDS011;56364;41.816;12.448;2022-11-25T19:00:43;10.15;;;2.35;;
69253;SDS011;56364;41.816;12.448;2022-11-25T19:03:16;7.75;;;2.08;;
69253;SDS011;56364;41.816;12.448;2022-11-25T19:05:43;5.35;;;2.13;;
69253;SDS011;56364;41.816;12.448;2022-11-25T19:08:09;8.48;;;1.80;;
69253;SDS011;56364;41.816;12.448;2022-11-25T19:13:02;7.82;;;1.90;;
69253;SDS011;56364;41.816;12.448;2022-11-25T19:15:30;5.65;;;1.92;;
69253;SDS011;56364;41.816;12.448;2022-11-25T19:18:01;8.20;;;1.92;;
69253;SDS011;56364;41.816;12.448;2022-11-25T19:20:28;4.88;;;2.13;;
69253;SDS011;56364;41.816;12.448;2022-11-25T19:22:55;5.50;;;1.80;;
69253;SDS011;56364;41.816;12.448;2022-11-25T19:27:49;6.82;;;1.52;;
69253;SDS011;56364;41.816;12.448;2022-11-25T19:30:18;3.60;;;1.45;;